createdAt,value
2023-02-20T00:01:56.146Z,4.80
2023-02-20T00:04:22.908Z,5.07
2023-02-20T00:06:49.325Z,4.63
2023-02-20T00:09:16.235Z,4.90
2023-02-20T00:11:42.732Z,5.13
2023-02-20T00:14:09.084Z,5.88
2023-02-20T00:16:35.419Z,4.68
2023-02-20T00:19:01.778Z,4.80
2023-02-20T00:21:28.221Z,5.13
2023-02-20T00:23:54.608Z,4.80
2023-02-20T00:26:20.979Z,5.00
2023-02-20T00:28:47.364Z,5.55
2023-02-20T00:31:15.807Z,5.65
2023-02-20T00:33:42.654Z,4.97
2023-02-20T00:36:15.229Z,5.90
2023-02-20T00:38:45.616Z,5.70
2023-02-20T00:41:14.160Z,5.78
2023-02-20T00:43:41.878Z,6.05
2023-02-20T00:46:12.307Z,5.77
2023-02-20T00:48:38.941Z,6.05
2023-02-20T00:51:05.514Z,5.85
2023-02-20T00:53:31.881Z,6.38
2023-02-20T00:55:58.319Z,6.15
2023-02-20T00:58:24.707Z,6.40
2023-02-20T01:00:51.156Z,6.03
2023-02-20T01:03:17.581Z,6.00
2023-02-20T01:05:44.002Z,6.10
2023-02-20T01:08:10.342Z,6.30
2023-02-20T01:10:36.773Z,6.67
2023-02-20T01:13:03.149Z,6.15
2023-02-20T01:15:29.507Z,6.32
2023-02-20T01:17:55.926Z,7.00
2023-02-20T01:20:22.458Z,6.63
2023-02-20T01:22:48.914Z,7.20
2023-02-20T01:25:15.500Z,7.45
2023-02-20T01:27:41.916Z,6.50
2023-02-20T01:30:08.989Z,7.22
2023-02-20T01:32:35.432Z,7.10
2023-02-20T01:35:02.065Z,7.07
2023-02-20T01:37:28.495Z,6.47
2023-02-20T01:39:54.880Z,7.25
2023-02-20T01:42:24.650Z,7.18
2023-02-20T01:44:51.813Z,6.85
2023-02-20T01:47:23.556Z,7.53
2023-02-20T01:49:57.771Z,7.80
2023-02-20T01:52:26.515Z,6.97
2023-02-20T01:55:01.527Z,7.88
2023-02-20T01:57:32.226Z,8.10
2023-02-20T02:00:10.483Z,7.33
2023-02-20T02:02:42.050Z,8.07
2023-02-20T02:05:10.744Z,7.20
2023-02-20T02:07:37.249Z,7.90
2023-02-20T02:10:10.248Z,7.93
2023-02-20T02:12:38.026Z,8.40
2023-02-20T02:15:13.621Z,7.85
2023-02-20T02:18:30.761Z,8.23
2023-02-20T02:21:31.723Z,7.95
2023-02-20T02:24:38.026Z,8.73
2023-02-20T02:27:23.265Z,9.10
2023-02-20T02:30:26.322Z,10.23
2023-02-20T02:33:06.822Z,10.13
2023-02-20T02:35:51.926Z,10.63
2023-02-20T02:38:44.334Z,10.48
2023-02-20T02:41:30.333Z,10.80
2023-02-20T02:44:01.810Z,11.85
2023-02-20T02:46:58.828Z,11.52
2023-02-20T02:49:36.854Z,11.32
2023-02-20T02:52:05.090Z,11.77
2023-02-20T02:54:31.600Z,12.03
2023-02-20T02:57:25.798Z,11.35
2023-02-20T03:00:01.033Z,12.07
2023-02-20T03:02:32.996Z,11.52
2023-02-20T03:05:02.572Z,12.35
2023-02-20T03:07:31.185Z,12.57
2023-02-20T03:10:02.707Z,12.93
2023-02-20T03:12:30.787Z,13.40
2023-02-20T03:15:20.842Z,12.43
2023-02-20T03:18:10.599Z,12.52
2023-02-20T03:20:45.338Z,13.00
2023-02-20T03:23:22.278Z,12.55
2023-02-20T03:25:58.483Z,13.15
2023-02-20T03:28:27.221Z,13.05
2023-02-20T03:31:00.671Z,13.70
2023-02-20T03:33:59.031Z,13.70
2023-02-20T03:36:52.918Z,12.90
2023-02-20T03:39:43.833Z,12.85
2023-02-20T03:42:31.526Z,13.15
2023-02-20T03:45:00.862Z,12.52
2023-02-20T03:47:29.041Z,13.03
2023-02-20T03:50:14.715Z,13.88
2023-02-20T03:52:41.726Z,13.00
2023-02-20T03:55:09.451Z,13.65
2023-02-20T03:57:43.996Z,13.23
2023-02-20T04:00:19.823Z,13.20
2023-02-20T04:02:49.489Z,12.68
2023-02-20T04:05:25.142Z,12.70
2023-02-20T04:07:57.686Z,13.18
2023-02-20T04:10:28.990Z,12.40
2023-02-20T04:12:57.035Z,12.83
2023-02-20T04:15:25.261Z,13.40
2023-02-20T04:17:57.982Z,13.23
2023-02-20T04:20:24.516Z,15.00
2023-02-20T04:22:54.764Z,14.32
2023-02-20T04:25:42.187Z,13.33
2023-02-20T04:28:08.937Z,13.88
2023-02-20T04:30:35.385Z,14.23
2023-02-20T04:33:01.880Z,13.95
2023-02-20T04:35:28.337Z,13.93
2023-02-20T04:37:54.868Z,13.73
2023-02-20T04:40:23.430Z,14.07
2023-02-20T04:42:50.078Z,13.70
2023-02-20T04:45:17.758Z,15.27
2023-02-20T04:47:45.485Z,14.45
2023-02-20T04:50:25.565Z,14.93
2023-02-20T04:52:52.576Z,15.63
2023-02-20T04:55:20.329Z,14.98
2023-02-20T04:57:47.517Z,15.35
2023-02-20T05:00:16.087Z,15.35
2023-02-20T05:02:42.806Z,15.47
2023-02-20T05:05:20.149Z,15.60
2023-02-20T05:07:46.909Z,14.45
2023-02-20T05:10:19.742Z,15.23
2023-02-20T05:12:46.372Z,15.13
2023-02-20T05:15:14.112Z,14.67
2023-02-20T05:17:40.820Z,14.38
2023-02-20T05:20:08.092Z,13.70
2023-02-20T05:22:34.559Z,15.07
2023-02-20T05:25:01.009Z,14.23
2023-02-20T05:27:28.009Z,15.00
2023-02-20T05:29:57.332Z,14.55
2023-02-20T05:32:26.043Z,13.70
2023-02-20T05:34:52.490Z,13.45
2023-02-20T05:37:20.181Z,13.13
2023-02-20T05:39:47.161Z,13.03
2023-02-20T05:42:14.286Z,12.95
2023-02-20T05:44:40.721Z,13.90
2023-02-20T05:47:10.239Z,13.20
2023-02-20T05:49:37.192Z,12.02
2023-02-20T05:52:10.155Z,11.43
2023-02-20T05:54:36.712Z,12.57
2023-02-20T05:57:03.460Z,12.65
2023-02-20T05:59:29.865Z,11.95
2023-02-20T06:01:57.766Z,10.48
2023-02-20T06:04:24.181Z,12.13
2023-02-20T06:06:50.690Z,10.18
2023-02-20T06:09:17.710Z,11.70
2023-02-20T06:11:55.785Z,9.93
2023-02-20T06:14:24.962Z,9.25
2023-02-20T06:16:51.718Z,9.50
2023-02-20T06:19:22.117Z,8.98
2023-02-20T06:21:53.541Z,10.82
2023-02-20T06:24:21.106Z,9.07
2023-02-20T06:26:47.546Z,9.38
2023-02-20T06:29:15.688Z,8.43
2023-02-20T06:31:42.339Z,8.98
2023-02-20T06:34:09.726Z,9.02
2023-02-20T06:36:39.476Z,8.43
2023-02-20T06:39:08.283Z,8.30
2023-02-20T06:41:34.830Z,8.03
2023-02-20T06:44:01.323Z,9.07
2023-02-20T06:46:27.858Z,8.70
2023-02-20T06:48:57.314Z,8.20
2023-02-20T06:51:27.086Z,8.70
2023-02-20T06:53:53.605Z,8.53
2023-02-20T06:56:23.057Z,8.85
2023-02-20T06:58:51.952Z,7.93
2023-02-20T07:01:20.299Z,9.02
2023-02-20T07:03:48.903Z,7.95
2023-02-20T07:06:16.339Z,7.63
2023-02-20T07:08:43.060Z,8.13
2023-02-20T07:11:09.735Z,8.02
2023-02-20T07:13:36.116Z,7.72
2023-02-20T07:16:02.529Z,8.35
2023-02-20T07:18:29.032Z,7.77
2023-02-20T07:20:56.080Z,7.10
2023-02-20T07:23:23.117Z,6.78
2023-02-20T07:25:50.333Z,6.95
2023-02-20T07:28:18.792Z,6.45
2023-02-20T07:30:46.691Z,7.00
2023-02-20T07:33:13.161Z,6.20
2023-02-20T07:35:39.527Z,6.40
2023-02-20T07:38:06.033Z,6.15
2023-02-20T07:40:32.677Z,6.72
2023-02-20T07:42:59.083Z,6.80
2023-02-20T07:45:25.810Z,6.82
2023-02-20T07:47:52.486Z,6.63
2023-02-20T07:50:19.089Z,6.00
2023-02-20T07:52:45.958Z,6.82
2023-02-20T07:55:17.501Z,6.00
2023-02-20T07:57:46.680Z,7.82
2023-02-20T08:00:15.461Z,6.57
2023-02-20T08:02:41.872Z,6.25
2023-02-20T08:05:08.729Z,6.70
2023-02-20T08:07:35.279Z,6.50
2023-02-20T08:10:01.643Z,6.32
2023-02-20T08:12:28.229Z,5.72
2023-02-20T08:14:54.600Z,7.07
2023-02-20T08:17:21.116Z,7.05
2023-02-20T08:19:47.543Z,7.17
2023-02-20T08:22:13.880Z,6.95
2023-02-20T08:24:40.295Z,7.18
2023-02-20T08:27:06.862Z,7.55
2023-02-20T08:29:33.274Z,6.90
2023-02-20T08:31:59.746Z,7.00
2023-02-20T08:34:26.144Z,7.50
2023-02-20T08:36:52.518Z,6.68
2023-02-20T08:39:18.928Z,7.55
2023-02-20T08:41:46.536Z,6.75
2023-02-20T08:44:13.795Z,6.33
2023-02-20T08:46:51.416Z,6.88
2023-02-20T08:49:20.167Z,7.15
2023-02-20T08:51:48.781Z,7.35
2023-02-20T08:54:15.870Z,7.03
2023-02-20T08:56:42.798Z,7.83
2023-02-20T08:59:09.334Z,7.70
2023-02-20T09:01:35.761Z,7.03
2023-02-20T09:04:02.564Z,7.82
2023-02-20T09:06:29.637Z,8.10
2023-02-20T09:08:56.049Z,8.17
2023-02-20T09:11:22.634Z,8.43
2023-02-20T09:13:52.207Z,8.27
2023-02-20T09:16:21.404Z,7.40
2023-02-20T09:18:47.971Z,8.32
2023-02-20T09:21:17.465Z,9.27
2023-02-20T09:23:44.049Z,8.43
2023-02-20T09:26:10.971Z,9.15
2023-02-20T09:28:37.721Z,9.32
2023-02-20T09:31:04.337Z,8.77
2023-02-20T09:33:30.679Z,9.17
2023-02-20T09:35:57.086Z,8.75
2023-02-20T09:38:26.377Z,9.27
2023-02-20T09:40:56.844Z,9.18
2023-02-20T09:43:38.376Z,9.82
2023-02-20T09:46:22.512Z,9.30
2023-02-20T09:49:07.150Z,9.30
2023-02-20T09:51:38.238Z,8.73
2023-02-20T09:54:10.736Z,9.88
2023-02-20T09:56:41.393Z,9.30
2023-02-20T09:59:17.664Z,9.03
2023-02-20T10:01:56.617Z,9.65
2023-02-20T10:04:30.051Z,8.70
2023-02-20T10:07:04.426Z,8.80
2023-02-20T10:09:30.870Z,8.52
2023-02-20T10:12:26.133Z,9.10
2023-02-20T10:15:20.777Z,8.55
2023-02-20T10:18:12.904Z,8.10
2023-02-20T10:21:12.360Z,8.73
2023-02-20T10:23:47.249Z,8.52
2023-02-20T10:26:35.040Z,7.10
2023-02-20T10:29:17.977Z,8.43
2023-02-20T10:31:50.338Z,7.55
2023-02-20T10:34:27.985Z,7.90
2023-02-20T10:37:00.746Z,7.95
2023-02-20T10:39:29.325Z,7.80
2023-02-20T10:42:06.093Z,7.30
2023-02-20T10:44:52.199Z,6.72
2023-02-20T10:47:45.838Z,6.68
2023-02-20T10:50:12.140Z,6.20
2023-02-20T10:52:59.444Z,6.47
2023-02-20T10:55:41.040Z,7.07
2023-02-20T10:58:40.670Z,6.20
2023-02-20T11:01:11.798Z,6.75
2023-02-20T11:04:07.910Z,7.88
2023-02-20T11:06:39.961Z,7.77
2023-02-20T11:09:08.325Z,7.72
2023-02-20T11:11:39.943Z,7.95
2023-02-20T11:14:42.402Z,8.05
2023-02-20T11:17:14.204Z,8.70
2023-02-20T11:19:42.567Z,8.67
2023-02-20T11:22:09.849Z,9.98
2023-02-20T11:24:38.339Z,9.82
2023-02-20T11:27:20.679Z,9.40
2023-02-20T11:30:02.961Z,10.15
2023-02-20T11:32:35.089Z,10.57
2023-02-20T11:35:16.918Z,10.05
2023-02-20T11:37:55.446Z,9.88
2023-02-20T11:40:32.142Z,10.10
2023-02-20T11:43:14.644Z,9.02
2023-02-20T11:45:41.563Z,9.57
2023-02-20T11:48:10.582Z,9.73
2023-02-20T11:50:48.171Z,9.43
2023-02-20T11:53:19.477Z,10.10
2023-02-20T11:55:54.945Z,10.32
2023-02-20T11:58:27.572Z,9.27
2023-02-20T12:00:55.395Z,10.18
2023-02-20T12:03:28.954Z,10.48
2023-02-20T12:05:57.696Z,10.70
2023-02-20T12:08:43.764Z,10.52
2023-02-20T12:11:16.533Z,10.33
2023-02-20T12:13:45.578Z,11.35
2023-02-20T12:16:17.812Z,12.77
2023-02-20T12:19:09.173Z,10.82
2023-02-20T12:21:56.754Z,12.15
2023-02-20T12:24:48.026Z,11.13
2023-02-20T12:27:44.671Z,12.57
2023-02-20T12:30:32.789Z,12.02
2023-02-20T12:32:59.177Z,12.38
2023-02-20T12:35:36.058Z,13.07
2023-02-20T12:38:31.116Z,12.93
2023-02-20T12:41:09.538Z,14.10
2023-02-20T12:43:51.004Z,12.77
2023-02-20T12:46:55.247Z,11.85
2023-02-20T12:49:35.806Z,10.82
2023-02-20T12:52:35.855Z,11.37
2023-02-20T12:55:44.452Z,10.23
2023-02-20T12:58:20.997Z,11.05
2023-02-20T13:00:52.951Z,10.77
2023-02-20T13:03:40.950Z,10.35
2023-02-20T13:06:08.171Z,9.93
2023-02-20T13:08:53.142Z,10.77
2023-02-20T13:11:24.243Z,10.63
2023-02-20T13:14:13.978Z,10.20
2023-02-20T13:17:23.512Z,10.63
2023-02-20T13:20:35.244Z,10.03
2023-02-20T13:23:16.872Z,9.60
2023-02-20T13:25:48.928Z,9.65
2023-02-20T13:28:26.627Z,9.77
2023-02-20T13:31:14.494Z,10.63
2023-02-20T13:33:43.684Z,9.87
2023-02-20T13:36:26.814Z,10.35
2023-02-20T13:39:21.236Z,10.48
2023-02-20T13:41:53.944Z,10.63
2023-02-20T13:44:35.665Z,11.18
2023-02-20T13:47:22.209Z,11.33
2023-02-20T13:49:58.382Z,12.07
2023-02-20T13:52:40.039Z,11.88
2023-02-20T13:55:15.853Z,11.88
2023-02-20T13:58:03.966Z,12.45
2023-02-20T14:00:46.022Z,12.13
2023-02-20T14:03:18.246Z,13.77
2023-02-20T14:05:44.764Z,12.27
2023-02-20T14:08:20.245Z,14.10
2023-02-20T14:10:49.453Z,13.52
2023-02-20T14:13:30.788Z,13.17
2023-02-20T14:16:01.368Z,14.25
2023-02-20T14:18:30.522Z,13.13
2023-02-20T14:21:08.886Z,14.85
2023-02-20T14:23:35.575Z,12.35
2023-02-20T14:26:05.129Z,14.03
2023-02-20T14:28:34.694Z,14.00
2023-02-20T14:31:07.832Z,13.52
2023-02-20T14:33:34.767Z,13.77
2023-02-20T14:36:07.804Z,13.15
2023-02-20T14:38:40.360Z,12.50
2023-02-20T14:41:24.632Z,13.15
2023-02-20T14:43:59.519Z,13.05
2023-02-20T14:46:29.723Z,11.98
2023-02-20T14:49:09.588Z,14.90
2023-02-20T14:51:36.627Z,12.97
2023-02-20T14:54:15.890Z,14.45
2023-02-20T14:56:43.056Z,13.07
2023-02-20T14:59:26.236Z,12.88
2023-02-20T15:01:56.899Z,13.25
2023-02-20T15:04:26.132Z,12.73
2023-02-20T15:06:54.261Z,13.20
2023-02-20T15:09:23.255Z,13.30
2023-02-20T15:11:53.662Z,13.80
2023-02-20T15:14:23.958Z,14.13
2023-02-20T15:17:26.682Z,14.40
2023-02-20T15:19:53.582Z,15.75
2023-02-20T15:22:32.323Z,14.50
2023-02-20T15:25:33.901Z,15.68
2023-02-20T15:28:23.955Z,15.85
2023-02-20T15:31:03.347Z,15.17
2023-02-20T15:33:32.072Z,16.73
2023-02-20T15:35:58.988Z,17.02
2023-02-20T15:38:31.637Z,16.15
2023-02-20T15:40:59.923Z,16.83
2023-02-20T15:46:14.542Z,16.30
2023-02-20T15:48:42.121Z,15.32
2023-02-20T15:51:10.728Z,15.05
2023-02-20T15:53:38.289Z,16.02
2023-02-20T15:56:05.225Z,15.80
2023-02-20T15:58:35.576Z,14.23
2023-02-20T16:01:02.981Z,13.65
2023-02-20T16:03:33.915Z,13.45
2023-02-20T16:06:05.276Z,13.52
2023-02-20T16:08:32.087Z,14.03
2023-02-20T16:10:58.569Z,13.80
2023-02-20T16:13:39.836Z,14.07
2023-02-20T16:16:24.452Z,13.90
2023-02-20T16:18:54.399Z,14.27
2023-02-20T16:21:22.408Z,15.40
2023-02-20T16:23:50.111Z,15.23
2023-02-20T16:26:18.840Z,14.73
2023-02-20T16:28:52.128Z,14.25
2023-02-20T16:31:18.549Z,15.32
2023-02-20T16:33:45.012Z,15.50
2023-02-20T16:36:19.952Z,15.35
2023-02-20T16:38:50.765Z,14.55
2023-02-20T16:41:17.345Z,15.38
2023-02-20T16:43:43.763Z,15.07
2023-02-20T16:46:10.121Z,13.67
2023-02-20T16:48:36.483Z,14.40
2023-02-20T16:51:06.219Z,13.75
2023-02-20T16:53:32.851Z,15.00
2023-02-20T16:55:59.341Z,15.85
2023-02-20T16:58:25.842Z,13.70
2023-02-20T17:00:57.573Z,13.70
2023-02-20T17:03:24.515Z,14.88
2023-02-20T17:05:58.160Z,14.68
2023-02-20T17:08:25.021Z,14.52
2023-02-20T17:10:51.368Z,15.30
2023-02-20T17:13:17.845Z,15.38
2023-02-20T17:15:47.799Z,15.02
2023-02-20T17:18:14.863Z,13.10
2023-02-20T17:20:41.407Z,13.75
2023-02-20T17:23:07.793Z,13.57
2023-02-20T17:25:34.930Z,14.10
2023-02-20T17:28:01.784Z,15.23
2023-02-20T17:30:28.348Z,13.25
2023-02-20T17:32:54.836Z,15.00
2023-02-20T17:35:21.221Z,15.20
2023-02-20T17:37:47.652Z,13.50
2023-02-20T17:40:15.530Z,13.80
2023-02-20T17:42:42.050Z,13.13
2023-02-20T17:45:09.072Z,12.05
2023-02-20T17:47:37.276Z,11.87
2023-02-20T17:50:04.357Z,12.05
2023-02-20T17:52:30.852Z,10.90
2023-02-20T17:54:57.260Z,11.95
2023-02-20T17:57:23.854Z,12.10
2023-02-20T17:59:50.895Z,13.53
2023-02-20T18:02:18.174Z,12.55
2023-02-20T18:04:44.811Z,14.63
2023-02-20T18:07:11.903Z,13.52
2023-02-20T18:09:38.658Z,12.88
2023-02-20T18:12:06.115Z,12.93
2023-02-20T18:14:32.578Z,12.82
2023-02-20T18:16:59.105Z,13.45
2023-02-20T18:19:25.517Z,12.52
2023-02-20T18:21:52.789Z,12.98
2023-02-20T18:24:24.467Z,12.80
2023-02-20T18:26:52.834Z,13.15
2023-02-20T18:29:20.816Z,13.45
2023-02-20T18:31:48.221Z,13.80
2023-02-20T18:34:14.726Z,13.48
2023-02-20T18:36:41.217Z,14.30
2023-02-20T18:39:09.674Z,14.98
2023-02-20T18:41:36.817Z,15.15
2023-02-20T18:44:03.406Z,14.90
2023-02-20T18:46:35.371Z,14.95
2023-02-20T18:49:02.554Z,14.73
2023-02-20T18:51:34.517Z,14.35
2023-02-20T18:54:01.529Z,15.40
2023-02-20T18:56:28.250Z,14.43
2023-02-20T18:58:55.209Z,14.43
2023-02-20T19:01:23.287Z,13.73
2023-02-20T19:03:52.398Z,14.00
2023-02-20T19:06:25.720Z,14.60
2023-02-20T19:08:52.125Z,14.30
2023-02-20T19:11:19.050Z,14.52
2023-02-20T19:13:45.511Z,15.00
2023-02-20T19:16:12.318Z,13.93
2023-02-20T19:18:49.694Z,13.50
2023-02-20T19:21:17.213Z,13.63
2023-02-20T19:23:43.624Z,15.07
2023-02-20T19:26:10.292Z,13.47
2023-02-20T19:28:37.376Z,13.10
2023-02-20T19:31:04.805Z,13.65
2023-02-20T19:33:31.282Z,13.77
2023-02-20T19:35:57.685Z,12.98
2023-02-20T19:38:24.082Z,13.47
2023-02-20T19:40:50.698Z,13.18
2023-02-20T19:43:17.053Z,12.25
2023-02-20T19:45:43.575Z,12.55
2023-02-20T19:48:10.031Z,13.05
2023-02-20T19:50:37.373Z,11.80
2023-02-20T19:53:03.774Z,11.60
2023-02-20T19:55:31.673Z,11.85
2023-02-20T19:57:59.826Z,11.82
2023-02-20T20:00:28.594Z,11.13
2023-02-20T20:02:58.063Z,12.33
2023-02-20T20:05:25.466Z,12.13
2023-02-20T20:07:52.145Z,12.40
2023-02-20T20:10:22.753Z,14.02
2023-02-20T20:12:49.215Z,14.10
2023-02-20T20:15:21.329Z,13.70
2023-02-20T20:17:49.901Z,14.38
2023-02-20T20:20:17.973Z,14.35
2023-02-20T20:22:45.319Z,14.05
2023-02-20T20:25:13.389Z,14.90
2023-02-20T20:27:40.260Z,14.67
2023-02-20T20:30:08.795Z,15.43
2023-02-20T20:32:35.351Z,16.42
2023-02-20T20:35:01.813Z,16.13
2023-02-20T20:37:28.664Z,16.17
2023-02-20T20:39:58.181Z,15.30
2023-02-20T20:42:26.821Z,16.95
2023-02-20T20:44:55.406Z,16.95
2023-02-20T20:47:22.110Z,19.02
2023-02-20T20:49:48.453Z,17.73
2023-02-20T20:52:15.427Z,17.90
2023-02-20T20:54:42.064Z,18.65
2023-02-20T20:57:08.650Z,17.42
2023-02-20T20:59:37.446Z,18.77
2023-02-20T21:02:04.181Z,17.55
2023-02-20T21:04:30.564Z,18.53
2023-02-20T21:06:56.937Z,19.50
2023-02-20T21:09:23.361Z,19.10
2023-02-20T21:11:49.809Z,20.80
2023-02-20T21:14:16.402Z,19.48
2023-02-20T21:16:42.728Z,19.03
2023-02-20T21:19:09.101Z,20.98
2023-02-20T21:21:35.622Z,19.30
2023-02-20T21:24:02.264Z,19.58
2023-02-20T21:26:28.770Z,19.30
2023-02-20T21:28:55.574Z,19.23
2023-02-20T21:31:22.083Z,18.98
2023-02-20T21:33:50.801Z,18.85
2023-02-20T21:36:17.317Z,19.27
2023-02-20T21:38:43.916Z,19.67
2023-02-20T21:41:30.528Z,19.83
2023-02-20T21:44:15.533Z,20.08
2023-02-20T21:46:41.961Z,18.58
2023-02-20T21:49:08.340Z,19.17
2023-02-20T21:51:34.736Z,19.95
2023-02-20T21:54:01.080Z,18.30
2023-02-20T21:56:27.467Z,18.33
2023-02-20T21:59:05.713Z,19.25
2023-02-20T22:01:38.058Z,19.83
2023-02-20T22:04:06.440Z,20.13
2023-02-20T22:06:32.817Z,19.40
2023-02-20T22:09:17.825Z,18.33
2023-02-20T22:12:03.205Z,17.40
2023-02-20T22:14:48.131Z,18.10
2023-02-20T22:17:33.435Z,18.67
2023-02-20T22:20:18.144Z,16.93
2023-02-20T22:23:02.910Z,17.20
2023-02-20T22:25:47.968Z,17.90
2023-02-20T22:28:33.605Z,15.73
2023-02-20T22:31:19.994Z,15.98
2023-02-20T22:34:05.640Z,15.23
2023-02-20T22:36:50.916Z,14.13
2023-02-20T22:39:36.335Z,13.82
2023-02-20T22:42:29.656Z,12.88
2023-02-20T22:45:19.056Z,12.77
2023-02-20T22:48:03.751Z,13.00
2023-02-20T22:50:48.576Z,13.25
2023-02-20T22:53:33.372Z,13.15
2023-02-20T22:56:18.298Z,13.05
2023-02-20T22:59:03.049Z,13.52
2023-02-20T23:01:47.694Z,12.67
2023-02-20T23:04:32.626Z,13.18
2023-02-20T23:07:17.526Z,13.43
2023-02-20T23:10:02.252Z,12.93
2023-02-20T23:12:47.030Z,12.35
2023-02-20T23:15:31.890Z,13.20
2023-02-20T23:18:16.589Z,14.27
2023-02-20T23:21:01.461Z,13.15
2023-02-20T23:23:46.301Z,12.30
2023-02-20T23:26:30.957Z,13.93
2023-02-20T23:29:15.746Z,13.67
2023-02-20T23:32:02.893Z,14.27
2023-02-20T23:34:49.465Z,14.20
2023-02-20T23:37:34.858Z,14.38
2023-02-20T23:40:30.710Z,14.10
2023-02-20T23:43:19.589Z,14.57
2023-02-20T23:46:04.300Z,14.73
2023-02-20T23:48:49.400Z,14.60
2023-02-20T23:51:34.148Z,14.63
2023-02-20T23:54:19.040Z,13.95
2023-02-20T23:57:04.200Z,14.50
2023-02-20T23:59:49.100Z,15.30
